Flight Track Log - Related Links

Times and Time Zones

All times are in EDT time to prevent confusion due to time zone crossing. See the VNR104 flight status page for this flight to view local times or setup timezone preferences in your user account.

Time Position Orientation Groundspeed Altitude Reporting Facility
EDT Latitude Longitude Course Direction KTS MPH feet Rate Location/Type
Fri 08:43:09 AM 36.1000 -86.6833 238° Southwest 124 143 1,200  Level Nashville TRACON
Fri 08:44:09 AM 36.0833 -86.7167 238° Southwest 129 148 3,500 2,182 Climbing Nashville TRACON
Fri 08:45:10 AM 36.0500 -86.7500 219° Southwest 165 190 5,600 2,139 Climbing Nashville TRACON
Fri 08:46:04 AM 36.0000 -86.7833 208° Southwest 193 222 7,600 1,983 Climbing Nashville TRACON
Fri 08:47:08 AM 35.9667 -86.8358 232° Southwest 204 235 9,500 1,935 Climbing Memphis Center
Fri 08:48:08 AM 35.9244 -86.8861 224° Southwest 215 247 11,600 2,150 Climbing Memphis Center
Fri 08:49:08 AM 35.8819 -86.9342 223° Southwest 215 247 13,800 2,100 Climbing Memphis Center
Fri 08:50:08 AM 35.8372 -86.9794 219° Southwest 215 247 15,800 1,950 Climbing Memphis Center
Fri 08:51:08 AM 35.7886 -87.0250 217° Southwest 225 259 17,700 1,900 Climbing Memphis Center
Fri 08:52:08 AM 35.7314 -87.0758 216° Southwest 231 266 19,600 1,800 Climbing Memphis Center
Fri 08:53:08 AM 35.6825 -87.1214 217° Southwest 231 266 21,300 1,700 Climbing Memphis Center
Fri 08:54:08 AM 35.6297 -87.1719 218° Southwest 236 272 23,000 1,600 Climbing Memphis Center
Fri 08:55:08 AM 35.5700 -87.2075 206° Southwest 242 278 24,500 1,450 Climbing Memphis Center
Fri 08:56:08 AM 35.5086 -87.2456 207° Southwest 247 284 25,900 1,400 Climbing Memphis Center
Fri 08:57:08 AM 35.4447 -87.2836 206° Southwest 252 290 27,300 1,400 Climbing Memphis Center
Fri 08:58:08 AM 35.3875 -87.3239 210° Southwest 252 290 28,700 1,150 Climbing Memphis Center
Fri 08:59:08 AM 35.3319 -87.3614 209° Southwest 240 276 29,600 950 Climbing Memphis Center
Fri 09:00:08 AM 35.2703 -87.4019 208° Southwest 240 276 30,600 900 Climbing Memphis Center
Fri 09:01:08 AM 35.2108 -87.4422 209° Southwest 240 276 31,400 700 Climbing Memphis Center
Fri 09:02:08 AM 35.1472 -87.4850 209° Southwest 246 283 32,000 300 Climbing Memphis Center
Fri 09:03:08 AM 35.0836 -87.5278 209° Southwest 269 310 32,000  Level Memphis Center
Fri 09:04:08 AM 35.0114 -87.5706 206° Southwest 289 333 32,000  Level Memphis Center
Fri 09:05:08 AM 34.9311 -87.6139 204° Southwest 306 352 32,000  Level Memphis Center
Fri 09:06:08 AM 34.8464 -87.6547 202° Southwest 303 349 32,000  Level Memphis Center
Fri 09:07:08 AM 34.7742 -87.6897 202° Southwest 303 349 32,000  Level Memphis Center
Fri 09:08:08 AM 34.6917 -87.7303 202° Southwest 315 362 32,000  Level Memphis Center
Fri 09:09:08 AM 34.6111 -87.7706 202° Southwest 315 362 32,000  Level Memphis Center
Fri 09:10:08 AM 34.5306 -87.8083 201° Southwest 310 357 32,000  Level Memphis Center
Fri 09:11:08 AM 34.4478 -87.8461 201° Southwest 310 357 32,000  Level Memphis Center
Fri 09:12:08 AM 34.3672 -87.8861 202° Southwest 310 357 32,000  Level Memphis Center
Fri 09:13:08 AM 34.2803 -87.9264 201° Southwest 319 367 32,000  Level Memphis Center
Fri 09:14:08 AM 34.1933 -87.9642 200° South 319 367 32,000  Level Memphis Center
Fri 09:15:08 AM 34.1128 -87.9989 200° South 319 367 32,000  Level Memphis Center
Fri 09:16:08 AM 34.0300 -88.0364 201° Southwest 325 374 32,000  Level Memphis Center
Fri 09:17:08 AM 33.9450 -88.0761 201° Southwest 325 374 32,000  Level Memphis Center
Fri 09:18:08 AM 33.8644 -88.1133 201° Southwest 325 374 32,000  Level Memphis Center
Fri 09:19:08 AM 33.7878 -88.1528 203° Southwest 325 374 32,000  Level Memphis Center
Fri 09:20:08 AM 33.7072 -88.1922 202° Southwest 325 374 32,000  Level Memphis Center
Fri 09:21:08 AM 33.6242 -88.2292 200° South 325 374 32,000  Level Memphis Center
Fri 09:22:08 AM 33.5414 -88.2686 202° Southwest 330 380 32,000  Level Memphis Center
Fri 09:23:08 AM 33.4606 -88.3056 201° Southwest 330 380 32,000  Level Memphis Center
Fri 09:24:08 AM 33.3778 -88.3497 204° Southwest 330 380 32,000  Level Memphis Center
Fri 09:25:08 AM 33.2972 -88.3864 201° Southwest 330 380 32,000  Level Memphis Center
Fri 09:26:08 AM 33.2122 -88.4256 201° Southwest 324 373 32,000  Level Memphis Center
Fri 09:27:08 AM 33.1314 -88.4644 202° Southwest 324 373 32,000  Level Memphis Center
Fri 09:28:08 AM 33.0483 -88.4983 199° South 324 373 32,000  Level Memphis Center
Fri 09:29:08 AM 32.9653 -88.5372 201° Southwest 324 373 32,000  Level Memphis Center
Fri 09:30:08 AM 32.8867 -88.5811 205° Southwest 324 373 32,000  Level Memphis Center
Fri 09:31:08 AM 32.8144 -88.6344 212° Southwest 319 367 32,000  Level Memphis Center
Fri 09:32:08 AM 32.7381 -88.6903 212° Southwest 319 367 32,000  Level Memphis Center
Fri 09:33:08 AM 32.6678 -88.7433 212° Southwest 314 361 32,000  Level Memphis Center
Fri 09:34:08 AM 32.5933 -88.7989 212° Southwest 314 361 32,000  Level Memphis Center
Fri 09:35:08 AM 32.5208 -88.8569 214° Southwest 314 361 32,000  Level Memphis Center
Fri 09:36:08 AM 32.4442 -88.9147 212° Southwest 314 361 32,000  Level Memphis Center
Fri 09:37:08 AM 32.3678 -88.9725 213° Southwest 319 367 32,000  Level Memphis Center
Fri 09:38:08 AM 32.2953 -89.0253 212° Southwest 319 367 32,000  Level Memphis Center
Fri 09:39:08 AM 32.2206 -89.0828 213° Southwest 319 367 32,000  Level Memphis Center
Fri 09:40:08 AM 32.1439 -89.1381 211° Southwest 319 367 32,000  Level Memphis Center
Fri 09:41:08 AM 32.0714 -89.1928 213° Southwest 319 367 32,000  Level Memphis Center
Fri 09:43:20 AM 31.9044 -89.3181 213° Southwest 317 365 32,000 -218 Level Houston Center
Fri 09:44:21 AM 31.8278 -89.3731 211° Southwest 322 371 31,300 -1,366 Descending Houston Center
Fri 09:45:23 AM 31.7461 -89.4325 212° Southwest 340 391 29,200 -2,000 Descending Houston Center
Fri 09:46:24 AM 31.6656 -89.4936 213° Southwest 344 396 27,200 -1,721 Descending Houston Center
Fri 09:47:25 AM 31.5872 -89.5733 221° Southwest 340 391 25,700 -1,426 Descending Houston Center
Fri 09:48:26 AM 31.5200 -89.6417 221° Southwest 329 379 24,300 -1,366 Descending Houston Center
Fri 09:49:28 AM 31.4564 -89.7075 221° Southwest 312 359 22,900 -1,366 Descending Houston Center
Fri 09:50:29 AM 31.3939 -89.7700 220° Southwest 301 346 21,500 -1,279 Descending Houston Center
Fri 09:51:30 AM 31.3328 -89.8286 219° Southwest 290 334 20,300 -1,180 Descending Houston Center
Fri 09:52:31 AM 31.2656 -89.8725 209° Southwest 286 329 19,100 -1,171 Descending Houston Center
Fri 09:53:33 AM 31.1886 -89.8989 196° South 287 330 17,900 -1,220 Descending Houston Center
Fri 09:54:34 AM 31.0872 -89.9289 194° South 308 354 16,600 -1,230 Descending Houston Center
Fri 09:55:35 AM 31.0061 -89.9531 194° South 305 351 15,400 -1,388 Descending Houston Center
Fri 09:56:35 AM 30.9244 -89.9756 193° South 294 338 13,800 -1,700 Descending Houston Center
Fri 09:57:35 AM 30.8475 -89.9933 191° South 276 318 12,000 -1,452 Descending Houston Center
Fri 09:58:39 AM 30.7906 -90.0267 207° Southwest 245 282 10,800 -1,248 Descending Houston Center
Fri 09:59:40 AM 30.7314 -90.0661 210° Southwest 244 281 9,400 -1,463 Descending Houston Center
Fri 10:00:42 AM 30.6744 -90.1050 210° Southwest 243 280 7,800 -1,661 Descending Houston Center
Fri 10:01:32 AM 30.6183 -90.1458 212° Southwest 238 274 6,300 -982 Descending Houston Center
Fri 10:02:32 AM 30.5572 -90.1919 213° Southwest 266 306 6,000 -149 Descending Houston Center
Fri 10:03:33 AM 30.5042 -90.2325 213° Southwest 235 270 6,000 -545 Level Houston Center
Fri 10:04:33 AM 30.4594 -90.2803 223° Southwest 221 254 4,900 -1,120 Descending Houston Center
Fri 10:04:48 AM 30.4492 -90.2872 210° Southwest 217 250 4,600 -885 Descending Houston Center
Fri 10:05:34 AM 30.3939 -90.3189 206° Southwest 254 292 4,000 -689 Descending Houston Center
Fri 10:05:49 AM 30.3897 -90.3236 224° Southwest 230 265 3,900  Descending Houston Center
Fri 10:06:35 AM 30.3425 -90.3525 208° Southwest 208 239 4,000  Climbing Houston Center
Fri 10:06:50 AM 30.3375 -90.3550 203° Southwest 226 260 3,900 -78 Descending Houston Center
Fri 10:07:52 AM 30.2858 -90.3869 208° Southwest 218 251 3,900 57 Level Houston Center
Fri 10:08:36 AM 30.2381 -90.4167 208° Southwest 220 253 4,000  Climbing Houston Center
Fri 10:08:54 AM 30.2325 -90.4200 207° Southwest 216 249 3,900 -228 Descending Houston Center
Fri 10:09:55 AM 30.1592 -90.4631 207° Southwest 231 266 3,700 -771 Descending Houston Center
Fri 10:10:43 AM 30.1061 -90.4794 195° South 225 259 2,500 -990 Descending Houston Center
Fri 10:11:38 AM 30.0622 -90.4833 184° South 164 189 2,000 -400 Descending Houston Center
Fri 10:11:58 AM 30.0575 -90.4750 123° Southeast 196 226 2,000  Level Houston Center
Fri 10:12:44 AM 30.0358 -90.4411 126° Southeast 153 176 2,000  Level Houston Center
Fri 10:13:00 AM 30.0333 -90.4350 115° Southeast 167 192 2,000 -109 Level Houston Center
Fri 10:13:39 AM 30.0244 -90.4008 107° East 145 167 1,900 -197 Descending Houston Center
Fri 10:14:01 AM 30.0233 -90.3911 98° East 151 174 1,800 -689 Descending Houston Center
Fri 10:14:40 AM 30.0147 -90.3603 108° East 141 162 1,200 -677 Descending Houston Center
Fri 10:15:03 AM 30.0136 -90.3506 98° East 142 163 1,100 -500 Descending Houston Center
Fri 10:15:40 AM 30.0053 -90.3222 109° East 113 130 700 -492 Descending Houston Center
Fri 10:16:04 AM 30.0031 -90.3111 103° East 132 152 600 -250 Descending Houston Center

Login

Don't have an account? Register now (free) for customized features, flight alerts, and more!